createdAt,value
2022-09-15T00:01:18.271Z,100.00
2022-09-15T00:03:45.967Z,100.00
2022-09-15T00:06:14.664Z,100.00
2022-09-15T00:08:42.987Z,100.00
2022-09-15T00:11:20.205Z,100.00
2022-09-15T00:13:49.322Z,100.00
2022-09-15T00:16:18.852Z,100.00
2022-09-15T00:18:48.484Z,100.00
2022-09-15T00:21:19.435Z,100.00
2022-09-15T00:23:48.409Z,100.00
2022-09-15T00:26:20.530Z,100.00
2022-09-15T00:28:48.707Z,100.00
2022-09-15T00:31:22.184Z,100.00
2022-09-15T00:33:52.357Z,100.00
2022-09-15T00:36:22.114Z,100.00
2022-09-15T00:38:50.606Z,100.00
2022-09-15T00:41:20.191Z,100.00
2022-09-15T00:44:00.108Z,100.00
2022-09-15T00:46:35.245Z,100.00
2022-09-15T00:49:02.856Z,100.00
2022-09-15T00:52:07.015Z,100.00
2022-09-15T00:54:50.181Z,100.00
2022-09-15T00:57:35.495Z,100.00
2022-09-15T01:00:08.672Z,100.00
2022-09-15T01:02:37.613Z,100.00
2022-09-15T01:05:08.863Z,100.00
2022-09-15T01:07:55.398Z,100.00
2022-09-15T01:10:28.328Z,100.00
2022-09-15T01:13:00.240Z,100.00
2022-09-15T01:15:37.872Z,100.00
2022-09-15T01:18:44.329Z,100.00
2022-09-15T01:21:22.105Z,100.00
2022-09-15T01:24:01.668Z,100.00
2022-09-15T01:27:37.695Z,100.00
2022-09-15T01:30:05.354Z,100.00
2022-09-15T01:32:58.845Z,100.00
2022-09-15T01:35:44.434Z,100.00
2022-09-15T01:38:16.512Z,100.00
2022-09-15T01:41:05.940Z,100.00
2022-09-15T01:43:39.340Z,100.00
2022-09-15T01:46:07.855Z,100.00
2022-09-15T01:48:37.224Z,100.00
2022-09-15T01:51:07.131Z,100.00
2022-09-15T01:53:35.428Z,100.00
2022-09-15T01:56:08.589Z,100.00
2022-09-15T01:58:38.129Z,100.00
2022-09-15T02:01:20.297Z,100.00
2022-09-15T02:04:12.135Z,100.00
2022-09-15T02:07:00.970Z,100.00
2022-09-15T02:09:34.680Z,100.00
2022-09-15T02:12:07.851Z,100.00
2022-09-15T02:14:44.848Z,100.00
2022-09-15T02:17:18.014Z,100.00
2022-09-15T02:19:49.991Z,100.00
2022-09-15T02:22:27.113Z,100.00
2022-09-15T02:25:02.968Z,100.00
2022-09-15T02:27:37.778Z,100.00
2022-09-15T02:30:11.743Z,100.00
2022-09-15T02:32:48.184Z,100.00
2022-09-15T02:35:17.342Z,100.00
2022-09-15T02:37:46.240Z,100.00
2022-09-15T02:40:14.006Z,100.00
2022-09-15T02:42:51.513Z,100.00
2022-09-15T02:45:20.417Z,100.00
2022-09-15T02:47:49.532Z,100.00
2022-09-15T02:50:19.028Z,100.00
2022-09-15T02:52:47.069Z,100.00
2022-09-15T02:55:15.902Z,100.00
2022-09-15T02:57:43.573Z,100.00
2022-09-15T03:00:16.030Z,100.00
2022-09-15T03:02:46.349Z,100.00
2022-09-15T03:05:15.858Z,100.00
2022-09-15T03:07:43.863Z,100.00
2022-09-15T03:10:13.093Z,100.00
2022-09-15T03:12:42.829Z,100.00
2022-09-15T03:15:12.740Z,100.00
2022-09-15T03:17:42.567Z,100.00
2022-09-15T03:20:12.453Z,100.00
2022-09-15T03:22:40.134Z,100.00
2022-09-15T03:25:08.362Z,100.00
2022-09-15T03:27:37.509Z,100.00
2022-09-15T03:30:06.669Z,100.00
2022-09-15T03:32:34.590Z,100.00
2022-09-15T03:35:02.871Z,100.00
2022-09-15T03:37:30.438Z,100.00
2022-09-15T03:39:58.177Z,100.00
2022-09-15T03:42:25.865Z,100.00
2022-09-15T03:44:53.494Z,100.00
2022-09-15T03:47:21.061Z,100.00
2022-09-15T03:49:48.990Z,100.00
2022-09-15T03:52:16.800Z,100.00
2022-09-15T03:54:44.575Z,100.00
2022-09-15T03:57:12.044Z,100.00
2022-09-15T03:59:39.603Z,100.00
2022-09-15T04:02:07.088Z,100.00
2022-09-15T04:04:35.190Z,100.00
2022-09-15T04:07:02.680Z,100.00
2022-09-15T04:09:30.875Z,100.00
2022-09-15T04:11:58.469Z,100.00
2022-09-15T04:14:26.451Z,100.00
2022-09-15T04:16:53.906Z,100.00
2022-09-15T04:19:22.229Z,100.00
2022-09-15T04:21:50.125Z,100.00
2022-09-15T04:24:18.436Z,100.00
2022-09-15T04:26:46.360Z,100.00
2022-09-15T04:29:17.504Z,100.00
2022-09-15T04:31:46.847Z,100.00
2022-09-15T04:34:14.996Z,100.00
2022-09-15T04:36:43.080Z,100.00
2022-09-15T04:39:11.452Z,100.00
2022-09-15T04:41:38.966Z,100.00
2022-09-15T04:44:06.749Z,100.00
2022-09-15T04:46:34.357Z,100.00
2022-09-15T04:49:02.316Z,100.00
2022-09-15T04:51:29.936Z,100.00
2022-09-15T04:53:58.459Z,100.00
2022-09-15T04:56:26.700Z,100.00
2022-09-15T04:59:02.472Z,100.00
2022-09-15T05:01:34.122Z,100.00
2022-09-15T05:04:04.179Z,100.00
2022-09-15T05:06:33.090Z,100.00
2022-09-15T05:09:00.874Z,100.00
2022-09-15T05:11:28.643Z,100.00
2022-09-15T05:13:56.527Z,100.00
2022-09-15T05:16:26.257Z,100.00
2022-09-15T05:18:57.119Z,100.00
2022-09-15T05:21:25.896Z,100.00
2022-09-15T05:23:54.546Z,100.00
2022-09-15T05:26:25.423Z,100.00
2022-09-15T05:28:54.100Z,100.00
2022-09-15T05:31:25.213Z,100.00
2022-09-15T05:33:53.132Z,100.00
2022-09-15T05:36:25.076Z,100.00
2022-09-15T05:38:54.255Z,100.00
2022-09-15T05:41:22.306Z,100.00
2022-09-15T05:43:50.933Z,100.00
2022-09-15T05:46:20.713Z,100.00
2022-09-15T05:48:48.609Z,100.00
2022-09-15T05:51:16.802Z,100.00
2022-09-15T05:53:44.403Z,100.00
2022-09-15T05:56:14.475Z,100.00
2022-09-15T05:58:44.343Z,100.00
2022-09-15T06:01:18.545Z,100.00
2022-09-15T06:03:47.616Z,100.00
2022-09-15T06:06:15.966Z,100.00
2022-09-15T06:08:48.272Z,100.00
2022-09-15T06:11:19.968Z,100.00
2022-09-15T06:13:48.417Z,100.00
2022-09-15T06:16:21.559Z,100.00
2022-09-15T06:18:50.606Z,100.00
2022-09-15T06:21:21.499Z,100.00
2022-09-15T06:23:57.197Z,100.00
2022-09-15T06:26:26.468Z,100.00
2022-09-15T06:28:56.925Z,100.00
2022-09-15T06:31:26.886Z,100.00
2022-09-15T06:33:57.712Z,100.00
2022-09-15T06:36:28.652Z,100.00
2022-09-15T06:38:56.947Z,100.00
2022-09-15T06:41:25.586Z,100.00
2022-09-15T06:43:53.334Z,100.00
2022-09-15T06:46:25.139Z,100.00
2022-09-15T06:48:53.747Z,100.00
2022-09-15T06:51:24.295Z,100.00
2022-09-15T06:53:53.395Z,100.00
2022-09-15T06:56:23.273Z,100.00
2022-09-15T06:58:51.451Z,100.00
2022-09-15T07:01:31.577Z,100.00
2022-09-15T07:04:01.610Z,100.00
2022-09-15T07:06:31.448Z,100.00
2022-09-15T07:08:59.420Z,100.00
2022-09-15T07:11:27.819Z,100.00
2022-09-15T07:13:55.376Z,99.29
2022-09-15T07:16:23.293Z,97.42
2022-09-15T07:18:51.525Z,97.00
2022-09-15T07:21:20.578Z,97.30
2022-09-15T07:23:48.999Z,96.59
2022-09-15T07:26:23.269Z,97.10
2022-09-15T07:28:54.560Z,97.10
2022-09-15T07:31:25.441Z,96.22
2022-09-15T07:33:53.559Z,97.20
2022-09-15T07:36:21.807Z,97.62
2022-09-15T07:38:50.690Z,96.42
2022-09-15T07:41:29.837Z,96.17
2022-09-15T07:43:59.126Z,94.69
2022-09-15T07:46:30.200Z,94.07
2022-09-15T07:48:58.001Z,93.68
2022-09-15T07:51:27.067Z,91.01
2022-09-15T07:53:55.529Z,88.10
2022-09-15T07:56:24.031Z,85.98
2022-09-15T07:58:51.802Z,82.50
2022-09-15T08:01:22.423Z,80.19
2022-09-15T08:03:52.117Z,81.43
2022-09-15T08:06:22.723Z,81.66
2022-09-15T08:08:55.098Z,79.42
2022-09-15T08:11:27.179Z,76.55
2022-09-15T08:13:54.997Z,74.88
2022-09-15T08:16:24.050Z,72.07
2022-09-15T08:18:53.734Z,70.36
2022-09-15T08:21:22.470Z,75.36
2022-09-15T08:23:52.623Z,75.76
2022-09-15T08:26:20.739Z,73.11
2022-09-15T08:28:49.380Z,73.34
2022-09-15T08:31:17.511Z,76.04
2022-09-15T08:33:53.472Z,76.16
2022-09-15T08:36:21.257Z,74.88
2022-09-15T08:38:48.864Z,74.00
2022-09-15T08:41:28.012Z,74.25
2022-09-15T08:44:16.046Z,69.29
2022-09-15T08:47:01.571Z,69.25
2022-09-15T08:49:51.708Z,66.65
2022-09-15T08:52:26.787Z,69.69
2022-09-15T08:54:58.191Z,66.95
2022-09-15T08:57:26.455Z,62.81
2022-09-15T08:59:55.651Z,61.70
2022-09-15T09:02:47.214Z,62.76
2022-09-15T09:05:34.447Z,64.29
2022-09-15T09:08:14.401Z,58.10
2022-09-15T09:11:02.381Z,56.54
2022-09-15T09:13:47.055Z,55.45
2022-09-15T09:16:27.449Z,53.46
2022-09-15T09:19:16.069Z,47.41
2022-09-15T09:21:48.254Z,46.81
2022-09-15T09:24:21.385Z,47.67
2022-09-15T09:26:54.299Z,49.95
2022-09-15T09:29:36.609Z,49.91
2022-09-15T09:32:13.278Z,50.55
2022-09-15T09:34:56.281Z,52.18
2022-09-15T09:37:24.762Z,52.78
2022-09-15T09:39:52.364Z,51.12
2022-09-15T09:42:24.685Z,50.96
2022-09-15T09:44:52.795Z,52.20
2022-09-15T09:47:20.671Z,47.95
2022-09-15T09:49:49.525Z,48.31
2022-09-15T09:52:35.617Z,44.33
2022-09-15T09:55:24.271Z,42.87
2022-09-15T09:57:52.340Z,40.83
2022-09-15T10:00:41.092Z,40.43
2022-09-15T10:03:21.277Z,39.58
2022-09-15T10:06:07.930Z,38.44
2022-09-15T10:08:36.760Z,38.24
2022-09-15T10:11:10.379Z,37.25
2022-09-15T10:13:52.614Z,36.27
2022-09-15T10:16:22.631Z,36.07
2022-09-15T10:18:54.194Z,34.14
2022-09-15T10:21:26.294Z,36.58
2022-09-15T10:23:53.828Z,36.69
2022-09-15T10:26:34.614Z,35.94
2022-09-15T10:29:14.815Z,34.66
2022-09-15T10:31:44.808Z,33.75
2022-09-15T10:34:30.989Z,32.25
2022-09-15T10:37:16.154Z,31.06
2022-09-15T10:39:52.808Z,32.72
2022-09-15T10:42:46.108Z,33.52
2022-09-15T10:45:32.580Z,33.76
2022-09-15T10:48:09.607Z,33.49
2022-09-15T10:51:31.567Z,31.59
2022-09-15T10:54:25.493Z,32.25
2022-09-15T10:57:02.160Z,30.75
2022-09-15T10:59:36.231Z,30.36
2022-09-15T11:02:38.646Z,30.83
2022-09-15T11:05:23.008Z,31.09
2022-09-15T11:08:01.118Z,31.34
2022-09-15T11:10:35.421Z,31.81
2022-09-15T11:13:27.962Z,31.33
2022-09-15T11:15:56.651Z,32.16
2022-09-15T11:18:29.438Z,32.53
2022-09-15T11:21:00.025Z,31.86
2022-09-15T11:23:34.365Z,30.59
2022-09-15T11:26:22.527Z,31.32
2022-09-15T11:28:59.893Z,32.79
2022-09-15T11:31:34.444Z,33.17
2022-09-15T11:34:15.772Z,33.60
2022-09-15T11:36:49.209Z,33.01
2022-09-15T11:39:24.241Z,30.42
2022-09-15T11:41:59.642Z,30.47
2022-09-15T11:44:37.653Z,29.92
2022-09-15T11:47:05.319Z,29.51
2022-09-15T11:49:57.127Z,29.08
2022-09-15T11:52:49.413Z,30.43
2022-09-15T11:55:23.321Z,30.53
2022-09-15T11:57:56.074Z,31.26
2022-09-15T12:00:23.548Z,31.22
2022-09-15T12:03:12.477Z,30.76
2022-09-15T12:05:47.601Z,33.08
2022-09-15T12:08:25.404Z,33.26
2022-09-15T12:10:56.666Z,35.23
2022-09-15T12:13:26.354Z,33.96
2022-09-15T12:15:55.179Z,31.88
2022-09-15T12:18:43.842Z,30.23
2022-09-15T12:21:29.210Z,30.44
2022-09-15T12:24:05.396Z,28.37
2022-09-15T12:26:33.803Z,28.96
2022-09-15T12:29:04.604Z,29.01
2022-09-15T12:31:39.780Z,29.97
2022-09-15T12:34:25.808Z,29.74
2022-09-15T12:36:56.052Z,28.78
2022-09-15T12:39:41.620Z,26.94
2022-09-15T12:42:20.509Z,26.62
2022-09-15T12:45:07.068Z,27.65
2022-09-15T12:47:42.325Z,27.49
2022-09-15T12:50:15.771Z,29.07
2022-09-15T12:52:50.124Z,28.84
2022-09-15T12:55:22.653Z,31.42
2022-09-15T12:57:53.162Z,30.21
2022-09-15T13:00:20.619Z,29.34
2022-09-15T13:02:51.530Z,28.09
2022-09-15T13:05:42.035Z,28.68
2022-09-15T13:08:12.609Z,28.82
2022-09-15T13:10:43.826Z,28.75
2022-09-15T13:13:39.547Z,27.12
2022-09-15T13:16:14.592Z,28.51
2022-09-15T13:18:44.054Z,29.82
2022-09-15T13:21:16.405Z,32.27
2022-09-15T13:23:48.359Z,34.55
2022-09-15T13:26:22.649Z,35.23
2022-09-15T13:28:55.615Z,34.59
2022-09-15T13:31:50.976Z,34.93
2022-09-15T13:38:16.613Z,34.99
2022-09-15T13:41:06.672Z,34.64
2022-09-15T13:43:49.423Z,35.30
2022-09-15T13:46:23.018Z,35.33
2022-09-15T13:48:50.755Z,35.97
2022-09-15T13:51:39.699Z,34.01
2022-09-15T13:54:19.084Z,29.70
2022-09-15T13:56:49.143Z,29.23
2022-09-15T13:59:24.171Z,30.33
2022-09-15T14:01:54.557Z,32.05
2022-09-15T14:04:25.073Z,29.56
2022-09-15T14:06:58.523Z,28.80
2022-09-15T14:09:47.544Z,28.45
2022-09-15T14:12:18.134Z,30.01
2022-09-15T14:14:54.821Z,30.68
2022-09-15T14:17:26.775Z,30.36
2022-09-15T14:19:56.764Z,30.37
2022-09-15T14:22:28.751Z,30.71
2022-09-15T14:24:57.677Z,30.91
2022-09-15T14:27:32.629Z,33.67
2022-09-15T14:30:06.647Z,33.67
2022-09-15T14:32:47.912Z,32.27
2022-09-15T14:35:19.899Z,31.44
2022-09-15T14:37:57.151Z,30.22
2022-09-15T14:40:27.302Z,33.12
2022-09-15T14:42:55.961Z,35.67
2022-09-15T14:45:56.883Z,37.32
2022-09-15T14:48:28.445Z,35.54
2022-09-15T14:51:07.255Z,37.97
2022-09-15T14:53:40.692Z,40.71
2022-09-15T14:56:22.959Z,43.54
2022-09-15T14:59:03.688Z,42.58
2022-09-15T15:01:34.644Z,35.39
2022-09-15T15:04:09.940Z,34.15
2022-09-15T15:07:05.006Z,39.94
2022-09-15T15:09:49.100Z,44.30
2022-09-15T15:12:23.706Z,47.54
2022-09-15T15:14:54.390Z,47.58
2022-09-15T15:17:38.662Z,47.15
2022-09-15T15:20:06.229Z,49.11
2022-09-15T15:22:34.273Z,49.59
2022-09-15T15:25:02.916Z,48.55
2022-09-15T15:27:33.766Z,48.06
2022-09-15T15:30:26.591Z,46.96
2022-09-15T15:32:54.883Z,46.99
2022-09-15T15:35:23.383Z,44.24
2022-09-15T15:38:05.514Z,40.33
2022-09-15T15:40:35.930Z,37.22
2022-09-15T15:43:16.346Z,36.04
2022-09-15T15:45:51.993Z,36.50
2022-09-15T15:48:20.037Z,36.04
2022-09-15T15:50:47.824Z,38.56
2022-09-15T15:53:16.648Z,40.33
2022-09-15T15:55:44.662Z,43.31
2022-09-15T15:58:13.441Z,46.64
2022-09-15T16:00:51.184Z,47.31
2022-09-15T16:03:20.312Z,47.79
2022-09-15T16:05:54.348Z,50.68
2022-09-15T16:08:31.682Z,52.31
2022-09-15T16:11:02.304Z,53.01
2022-09-15T16:13:30.524Z,54.22
2022-09-15T16:16:00.391Z,55.28
2022-09-15T16:18:29.578Z,57.02
2022-09-15T16:20:57.065Z,58.91
2022-09-15T16:23:24.707Z,58.47
2022-09-15T16:25:57.757Z,59.23
2022-09-15T16:28:25.916Z,60.80
2022-09-15T16:30:54.313Z,61.11
2022-09-15T16:33:22.540Z,60.36
2022-09-15T16:35:55.768Z,60.41
2022-09-15T16:38:25.915Z,61.01
2022-09-15T16:40:53.762Z,62.19
2022-09-15T16:43:23.158Z,63.99
2022-09-15T16:45:52.322Z,65.21
2022-09-15T16:48:20.419Z,64.91
2022-09-15T16:51:16.805Z,65.45
2022-09-15T16:53:39.542Z,66.58
2022-09-15T16:56:10.679Z,67.78
2022-09-15T16:58:38.875Z,69.56
2022-09-15T17:01:07.997Z,70.11
2022-09-15T17:03:36.099Z,70.36
2022-09-15T17:06:04.524Z,72.40
2022-09-15T17:08:33.804Z,72.81
2022-09-15T17:11:03.969Z,72.57
2022-09-15T17:13:33.603Z,72.96
2022-09-15T17:16:02.213Z,74.88
2022-09-15T17:18:29.989Z,74.89
2022-09-15T17:20:57.486Z,75.11
2022-09-15T17:23:34.794Z,74.19
2022-09-15T17:26:05.427Z,74.57
2022-09-15T17:28:36.578Z,75.91
2022-09-15T17:31:21.937Z,77.14
2022-09-15T17:33:50.606Z,77.02
2022-09-15T17:36:18.744Z,77.31
2022-09-15T17:38:48.883Z,78.63
2022-09-15T17:41:19.819Z,77.51
2022-09-15T17:43:47.698Z,77.79
2022-09-15T17:46:16.398Z,76.97
2022-09-15T17:48:44.122Z,77.22
2022-09-15T17:51:19.706Z,78.11
2022-09-15T17:53:47.867Z,77.63
2022-09-15T17:56:15.561Z,78.47
2022-09-15T17:58:44.067Z,78.25
2022-09-15T18:01:13.741Z,78.07
2022-09-15T18:03:43.307Z,78.15
2022-09-15T18:06:11.498Z,78.23
2022-09-15T18:08:39.041Z,79.02
2022-09-15T18:11:07.694Z,78.69
2022-09-15T18:13:37.972Z,79.82
2022-09-15T18:16:10.354Z,80.23
2022-09-15T18:18:39.962Z,80.59
2022-09-15T18:21:09.840Z,80.91
2022-09-15T18:23:38.167Z,80.27
2022-09-15T18:26:05.891Z,80.24
2022-09-15T18:28:33.803Z,81.28
2022-09-15T18:31:01.457Z,81.67
2022-09-15T18:33:30.276Z,81.09
2022-09-15T18:36:01.473Z,82.72
2022-09-15T18:38:29.929Z,82.88
2022-09-15T18:40:58.749Z,83.81
2022-09-15T18:43:27.933Z,83.91
2022-09-15T18:46:00.481Z,84.41
2022-09-15T18:48:29.334Z,84.01
2022-09-15T18:50:57.044Z,83.84
2022-09-15T18:53:24.755Z,83.92
2022-09-15T18:55:52.394Z,82.81
2022-09-15T18:58:22.435Z,82.70
2022-09-15T19:00:50.236Z,83.16
2022-09-15T19:03:18.442Z,82.32
2022-09-15T19:05:46.535Z,82.00
2022-09-15T19:08:15.562Z,82.35
2022-09-15T19:10:44.237Z,83.41
2022-09-15T19:13:14.151Z,84.50
2022-09-15T19:15:44.128Z,85.21
2022-09-15T19:18:12.547Z,85.74
2022-09-15T19:20:40.568Z,86.01
2022-09-15T19:23:09.416Z,86.25
2022-09-15T19:25:37.139Z,86.34
2022-09-15T19:28:05.121Z,86.98
2022-09-15T19:30:33.474Z,87.52
2022-09-15T19:33:05.595Z,88.78
2022-09-15T19:35:33.068Z,90.34
2022-09-15T19:38:00.802Z,90.61
2022-09-15T19:40:28.853Z,91.09
2022-09-15T19:42:57.362Z,90.13
2022-09-15T19:45:24.876Z,90.37
2022-09-15T19:47:52.852Z,90.08
2022-09-15T19:50:20.507Z,90.23
2022-09-15T19:52:48.041Z,90.71
2022-09-15T19:55:18.250Z,90.74
2022-09-15T19:57:46.635Z,91.65
2022-09-15T20:00:15.126Z,91.66
2022-09-15T20:02:42.752Z,92.25
2022-09-15T20:05:10.688Z,93.02
2022-09-15T20:07:38.342Z,93.26
2022-09-15T20:10:06.520Z,94.74
2022-09-15T20:12:34.438Z,94.64
2022-09-15T20:15:01.937Z,94.48
2022-09-15T20:17:29.988Z,95.35
2022-09-15T20:19:58.376Z,95.96
2022-09-15T20:22:26.743Z,95.92
2022-09-15T20:24:56.115Z,96.32
2022-09-15T20:27:24.052Z,95.65
2022-09-15T20:29:51.515Z,95.98
2022-09-15T20:32:22.763Z,95.98
2022-09-15T20:34:52.423Z,95.60
2022-09-15T20:37:22.257Z,95.37
2022-09-15T20:39:51.441Z,95.78
2022-09-15T20:42:19.216Z,95.87
2022-09-15T20:44:46.736Z,95.50
2022-09-15T20:47:15.860Z,95.12
2022-09-15T20:49:43.327Z,95.19
2022-09-15T20:52:11.447Z,95.25
2022-09-15T20:54:39.631Z,96.55
2022-09-15T20:57:07.497Z,97.54
2022-09-15T20:59:35.962Z,98.40
2022-09-15T21:02:06.053Z,99.13
2022-09-15T21:04:33.832Z,99.74
2022-09-15T21:07:01.673Z,100.00
2022-09-15T21:09:29.632Z,100.00
2022-09-15T21:11:57.630Z,100.00
2022-09-15T21:14:25.280Z,100.00
2022-09-15T21:16:53.899Z,100.00
2022-09-15T21:19:22.281Z,100.00
2022-09-15T21:21:49.988Z,100.00
2022-09-15T21:24:17.889Z,100.00
2022-09-15T21:27:04.342Z,100.00
2022-09-15T21:29:32.150Z,100.00
2022-09-15T21:32:01.131Z,100.00
2022-09-15T21:34:29.333Z,100.00
2022-09-15T21:36:57.925Z,100.00
2022-09-15T21:39:25.491Z,100.00
2022-09-15T21:41:53.207Z,100.00
2022-09-15T21:44:21.051Z,100.00
2022-09-15T21:46:48.655Z,100.00
2022-09-15T21:49:18.102Z,99.54
2022-09-15T21:51:47.138Z,98.86
2022-09-15T21:54:15.539Z,98.58
2022-09-15T21:56:43.063Z,98.65
2022-09-15T21:59:11.054Z,100.00
2022-09-15T22:01:39.903Z,100.00
2022-09-15T22:04:08.901Z,99.90
2022-09-15T22:06:40.499Z,99.51
2022-09-15T22:09:13.458Z,99.08
2022-09-15T22:11:41.910Z,99.26
2022-09-15T22:14:10.452Z,99.14
2022-09-15T22:16:40.049Z,100.00
2022-09-15T22:19:09.982Z,100.00
2022-09-15T22:21:41.753Z,100.00
2022-09-15T22:24:13.111Z,99.92
2022-09-15T22:26:42.529Z,100.00
2022-09-15T22:29:10.609Z,99.92
2022-09-15T22:31:38.691Z,99.94
2022-09-15T22:34:06.279Z,99.70
2022-09-15T22:36:34.542Z,99.32
2022-09-15T22:39:04.509Z,100.00
2022-09-15T22:41:35.120Z,100.00
2022-09-15T22:44:03.748Z,99.85
2022-09-15T22:46:31.810Z,97.91
2022-09-15T22:49:00.053Z,97.05
2022-09-15T22:51:27.710Z,98.26
2022-09-15T22:53:57.368Z,97.74
2022-09-15T22:56:26.726Z,98.20
2022-09-15T22:58:56.845Z,97.92
2022-09-15T23:01:27.169Z,97.61
2022-09-15T23:03:57.329Z,97.47
2022-09-15T23:06:28.361Z,98.24
2022-09-15T23:08:59.143Z,98.69
2022-09-15T23:11:29.359Z,99.48
2022-09-15T23:13:57.210Z,99.11
2022-09-15T23:16:25.817Z,99.00
2022-09-15T23:18:54.112Z,99.09
2022-09-15T23:21:21.957Z,98.36
2022-09-15T23:23:50.455Z,97.48
2022-09-15T23:26:21.884Z,97.94
2022-09-15T23:28:49.868Z,96.46
2022-09-15T23:31:18.567Z,95.97
2022-09-15T23:33:47.249Z,95.37
2022-09-15T23:36:19.652Z,94.66
2022-09-15T23:38:48.696Z,95.18
2022-09-15T23:41:17.416Z,95.45
2022-09-15T23:43:45.557Z,94.53
2022-09-15T23:46:13.617Z,95.09
2022-09-15T23:48:42.031Z,95.98
2022-09-15T23:51:10.215Z,96.75
2022-09-15T23:53:38.161Z,97.51
2022-09-15T23:56:06.482Z,98.50
2022-09-15T23:58:34.425Z,99.67
